sensor_id;sensor_type;location;lat;lon;timestamp;pressure;altitude;pressure_sealevel;temperature;humidity
59686;BME280;45554;51.096;16.976;2022-09-09T00:02:08;99807.31;;;15.29;100.00
59686;BME280;45554;51.096;16.976;2022-09-09T00:05:44;99804.65;;;15.25;100.00
59686;BME280;45554;51.096;16.976;2022-09-09T00:15:22;99813.58;;;15.13;100.00
59686;BME280;45554;51.096;16.976;2022-09-09T00:19:32;99808.98;;;15.08;100.00
59686;BME280;45554;51.096;16.976;2022-09-09T00:22:31;99801.39;;;15.04;100.00
59686;BME280;45554;51.096;16.976;2022-09-09T00:29:02;99810.84;;;15.03;100.00
59686;BME280;45554;51.096;16.976;2022-09-09T00:32:15;99811.09;;;14.99;100.00
59686;BME280;45554;51.096;16.976;2022-09-09T00:35:37;99812.02;;;14.97;100.00
59686;BME280;45554;51.096;16.976;2022-09-09T00:38:45;99805.75;;;14.93;100.00
59686;BME280;45554;51.096;16.976;2022-09-09T00:42:25;99808.14;;;14.90;100.00
59686;BME280;45554;51.096;16.976;2022-09-09T00:53:14;99805.69;;;14.77;100.00
59686;BME280;45554;51.096;16.976;2022-09-09T00:57:07;99804.95;;;14.72;100.00
59686;BME280;45554;51.096;16.976;2022-09-09T01:00:25;99807.55;;;14.70;100.00
59686;BME280;45554;51.096;16.976;2022-09-09T01:03:53;99814.39;;;14.69;100.00
59686;BME280;45554;51.096;16.976;2022-09-09T01:07:17;99815.58;;;14.67;100.00
59686;BME280;45554;51.096;16.976;2022-09-09T01:10:54;99811.27;;;14.66;100.00
59686;BME280;45554;51.096;16.976;2022-09-09T01:14:16;99811.90;;;14.65;100.00
59686;BME280;45554;51.096;16.976;2022-09-09T01:18:15;99815.95;;;14.62;100.00
59686;BME280;45554;51.096;16.976;2022-09-09T01:30:10;99820.77;;;14.48;100.00
59686;BME280;45554;51.096;16.976;2022-09-09T01:34:00;99827.50;;;14.43;100.00
59686;BME280;45554;51.096;16.976;2022-09-09T01:37:39;99827.95;;;14.42;100.00
59686;BME280;45554;51.096;16.976;2022-09-09T01:41:05;99829.82;;;14.38;100.00
59686;BME280;45554;51.096;16.976;2022-09-09T01:44:31;99827.38;;;14.36;100.00
59686;BME280;45554;51.096;16.976;2022-09-09T01:48:09;99828.96;;;14.31;100.00
59686;BME280;45554;51.096;16.976;2022-09-09T01:51:54;99833.70;;;14.29;100.00
59686;BME280;45554;51.096;16.976;2022-09-09T01:56:35;99836.41;;;14.26;100.00
59686;BME280;45554;51.096;16.976;2022-09-09T02:00:51;99838.38;;;14.23;100.00
59686;BME280;45554;51.096;16.976;2022-09-09T02:04:39;99838.88;;;14.24;100.00
59686;BME280;45554;51.096;16.976;2022-09-09T02:08:09;99842.59;;;14.26;100.00
59686;BME280;45554;51.096;16.976;2022-09-09T02:11:58;99844.89;;;14.26;100.00
59686;BME280;45554;51.096;16.976;2022-09-09T02:18:51;99850.77;;;14.21;100.00
59686;BME280;45554;51.096;16.976;2022-09-09T02:22:09;99847.87;;;14.21;100.00
59686;BME280;45554;51.096;16.976;2022-09-09T02:25:26;99845.33;;;14.20;100.00
59686;BME280;45554;51.096;16.976;2022-09-09T02:28:43;99848.88;;;14.20;100.00
59686;BME280;45554;51.096;16.976;2022-09-09T02:32:14;99848.88;;;14.17;100.00
59686;BME280;45554;51.096;16.976;2022-09-09T02:36:28;99849.91;;;14.16;100.00
59686;BME280;45554;51.096;16.976;2022-09-09T02:39:56;99850.59;;;14.11;100.00
59686;BME280;45554;51.096;16.976;2022-09-09T02:43:14;99854.95;;;14.12;100.00
59686;BME280;45554;51.096;16.976;2022-09-09T02:46:54;99857.86;;;14.11;100.00
59686;BME280;45554;51.096;16.976;2022-09-09T02:50:45;99857.80;;;14.11;100.00
59686;BME280;45554;51.096;16.976;2022-09-09T02:54:27;99854.64;;;14.11;100.00
59686;BME280;45554;51.096;16.976;2022-09-09T02:58:08;99857.48;;;14.10;100.00
59686;BME280;45554;51.096;16.976;2022-09-09T03:01:21;99862.45;;;14.08;100.00
59686;BME280;45554;51.096;16.976;2022-09-09T03:04:22;99857.77;;;14.07;100.00
59686;BME280;45554;51.096;16.976;2022-09-09T03:07:34;99871.23;;;14.06;100.00
59686;BME280;45554;51.096;16.976;2022-09-09T03:10:33;99862.09;;;13.99;100.00
59686;BME280;45554;51.096;16.976;2022-09-09T03:13:52;99872.58;;;14.03;100.00
59686;BME280;45554;51.096;16.976;2022-09-09T03:17:11;99874.98;;;14.00;100.00
59686;BME280;45554;51.096;16.976;2022-09-09T03:20:28;99880.73;;;13.97;100.00
59686;BME280;45554;51.096;16.976;2022-09-09T03:23:23;99879.20;;;13.96;100.00
59686;BME280;45554;51.096;16.976;2022-09-09T03:26:34;99876.64;;;13.95;100.00
59686;BME280;45554;51.096;16.976;2022-09-09T03:29:55;99877.46;;;13.96;100.00
59686;BME280;45554;51.096;16.976;2022-09-09T03:33:06;99878.05;;;13.95;100.00
59686;BME280;45554;51.096;16.976;2022-09-09T03:36:30;99879.86;;;13.92;100.00
59686;BME280;45554;51.096;16.976;2022-09-09T03:39:35;99883.14;;;13.91;100.00
59686;BME280;45554;51.096;16.976;2022-09-09T03:42:29;99885.41;;;13.91;100.00
59686;BME280;45554;51.096;16.976;2022-09-09T03:45:40;99886.75;;;13.89;100.00
59686;BME280;45554;51.096;16.976;2022-09-09T03:48:12;99886.75;;;13.87;100.00
59686;BME280;45554;51.096;16.976;2022-09-09T03:51:27;99885.93;;;13.84;100.00
59686;BME280;45554;51.096;16.976;2022-09-09T03:54:17;99884.34;;;13.80;100.00
59686;BME280;45554;51.096;16.976;2022-09-09T03:57:11;99890.64;;;13.77;100.00
59686;BME280;45554;51.096;16.976;2022-09-09T03:59:57;99884.48;;;13.75;100.00
59686;BME280;45554;51.096;16.976;2022-09-09T04:03:23;99886.32;;;13.74;100.00
59686;BME280;45554;51.096;16.976;2022-09-09T04:06:37;99887.90;;;13.71;100.00
59686;BME280;45554;51.096;16.976;2022-09-09T04:09:28;99891.27;;;13.69;100.00
59686;BME280;45554;51.096;16.976;2022-09-09T04:12:38;99892.55;;;13.68;100.00
59686;BME280;45554;51.096;16.976;2022-09-09T04:15:17;99899.52;;;13.69;100.00
59686;BME280;45554;51.096;16.976;2022-09-09T04:18:06;99902.77;;;13.70;100.00
59686;BME280;45554;51.096;16.976;2022-09-09T04:20:50;99900.80;;;13.71;100.00
59686;BME280;45554;51.096;16.976;2022-09-09T04:23:36;99903.56;;;13.69;100.00
59686;BME280;45554;51.096;16.976;2022-09-09T04:26:23;99904.45;;;13.69;100.00
59686;BME280;45554;51.096;16.976;2022-09-09T04:29:22;99909.16;;;13.70;100.00
59686;BME280;45554;51.096;16.976;2022-09-09T04:32:24;99910.22;;;13.72;100.00
59686;BME280;45554;51.096;16.976;2022-09-09T04:35:26;99909.11;;;13.73;100.00
59686;BME280;45554;51.096;16.976;2022-09-09T04:38:18;99912.98;;;13.75;100.00
59686;BME280;45554;51.096;16.976;2022-09-09T04:41:12;99911.01;;;13.76;100.00
59686;BME280;45554;51.096;16.976;2022-09-09T04:44:00;99913.23;;;13.77;100.00
59686;BME280;45554;51.096;16.976;2022-09-09T04:46:41;99911.16;;;13.77;100.00
59686;BME280;45554;51.096;16.976;2022-09-09T04:49:28;99914.89;;;13.76;100.00
59686;BME280;45554;51.096;16.976;2022-09-09T04:52:18;99909.20;;;13.74;100.00
59686;BME280;45554;51.096;16.976;2022-09-09T04:55:48;99910.25;;;13.74;100.00
59686;BME280;45554;51.096;16.976;2022-09-09T04:58:47;99910.33;;;13.76;100.00
59686;BME280;45554;51.096;16.976;2022-09-09T05:02:03;99911.44;;;13.77;100.00
59686;BME280;45554;51.096;16.976;2022-09-09T05:04:39;99914.17;;;13.83;100.00
59686;BME280;45554;51.096;16.976;2022-09-09T05:07:17;99912.70;;;13.86;100.00
59686;BME280;45554;51.096;16.976;2022-09-09T05:10:13;99919.52;;;13.89;100.00
59686;BME280;45554;51.096;16.976;2022-09-09T05:12:54;99926.15;;;13.93;100.00
59686;BME280;45554;51.096;16.976;2022-09-09T05:15:32;99925.68;;;13.97;100.00
59686;BME280;45554;51.096;16.976;2022-09-09T05:18:25;99924.34;;;14.00;100.00
59686;BME280;45554;51.096;16.976;2022-09-09T05:21:08;99927.80;;;14.04;100.00
59686;BME280;45554;51.096;16.976;2022-09-09T05:24:05;99933.23;;;14.04;100.00
59686;BME280;45554;51.096;16.976;2022-09-09T05:26:46;99933.73;;;14.05;100.00
59686;BME280;45554;51.096;16.976;2022-09-09T05:29:40;99933.38;;;14.07;100.00
59686;BME280;45554;51.096;16.976;2022-09-09T05:32:18;99931.21;;;14.10;100.00
59686;BME280;45554;51.096;16.976;2022-09-09T05:35:16;99931.41;;;14.14;100.00
59686;BME280;45554;51.096;16.976;2022-09-09T05:38:01;99934.06;;;14.19;100.00
59686;BME280;45554;51.096;16.976;2022-09-09T05:40:48;99937.34;;;14.24;100.00
59686;BME280;45554;51.096;16.976;2022-09-09T05:43:42;99936.81;;;14.29;100.00
59686;BME280;45554;51.096;16.976;2022-09-09T05:46:31;99937.44;;;14.33;100.00
59686;BME280;45554;51.096;16.976;2022-09-09T05:49:04;99937.73;;;14.38;100.00
59686;BME280;45554;51.096;16.976;2022-09-09T05:51:58;99933.02;;;14.45;100.00
59686;BME280;45554;51.096;16.976;2022-09-09T05:54:30;99930.13;;;14.50;100.00
59686;BME280;45554;51.096;16.976;2022-09-09T05:57:08;99929.84;;;14.56;100.00
59686;BME280;45554;51.096;16.976;2022-09-09T05:59:38;99929.00;;;14.62;100.00
59686;BME280;45554;51.096;16.976;2022-09-09T06:02:09;99935.31;;;14.70;100.00
59686;BME280;45554;51.096;16.976;2022-09-09T06:04:40;99937.71;;;14.78;100.00
59686;BME280;45554;51.096;16.976;2022-09-09T06:07:12;99939.28;;;14.85;100.00
59686;BME280;45554;51.096;16.976;2022-09-09T06:09:41;99941.61;;;14.91;100.00
59686;BME280;45554;51.096;16.976;2022-09-09T06:12:16;99938.10;;;15.00;100.00
59686;BME280;45554;51.096;16.976;2022-09-09T06:14:53;99931.09;;;15.09;100.00
59686;BME280;45554;51.096;16.976;2022-09-09T06:17:39;99927.80;;;15.18;100.00
59686;BME280;45554;51.096;16.976;2022-09-09T06:20:15;99928.05;;;15.29;100.00
59686;BME280;45554;51.096;16.976;2022-09-09T06:22:52;99930.86;;;15.38;100.00
59686;BME280;45554;51.096;16.976;2022-09-09T06:25:21;99928.71;;;15.47;100.00
59686;BME280;45554;51.096;16.976;2022-09-09T06:28:11;99924.15;;;15.56;100.00
59686;BME280;45554;51.096;16.976;2022-09-09T06:30:59;99930.45;;;15.69;100.00
59686;BME280;45554;51.096;16.976;2022-09-09T06:33:41;99927.73;;;15.81;100.00
59686;BME280;45554;51.096;16.976;2022-09-09T06:36:19;99928.41;;;15.97;100.00
59686;BME280;45554;51.096;16.976;2022-09-09T06:38:57;99932.92;;;16.13;100.00
59686;BME280;45554;51.096;16.976;2022-09-09T06:41:43;99934.88;;;16.32;100.00
59686;BME280;45554;51.096;16.976;2022-09-09T06:45:07;99939.71;;;16.58;100.00
59686;BME280;45554;51.096;16.976;2022-09-09T06:47:54;99941.63;;;16.79;99.64
59686;BME280;45554;51.096;16.976;2022-09-09T06:50:27;99940.84;;;16.93;99.66
59686;BME280;45554;51.096;16.976;2022-09-09T06:53:15;99938.95;;;17.09;99.38
59686;BME280;45554;51.096;16.976;2022-09-09T06:56:41;99939.23;;;17.24;98.31
59686;BME280;45554;51.096;16.976;2022-09-09T06:59:20;99942.42;;;17.37;97.08
59686;BME280;45554;51.096;16.976;2022-09-09T07:01:55;99939.59;;;17.46;95.46
59686;BME280;45554;51.096;16.976;2022-09-09T07:04:27;99936.30;;;17.55;94.93
59686;BME280;45554;51.096;16.976;2022-09-09T07:07:01;99937.54;;;17.65;94.61
59686;BME280;45554;51.096;16.976;2022-09-09T07:09:37;99942.38;;;17.72;92.67
59686;BME280;45554;51.096;16.976;2022-09-09T07:12:25;99944.34;;;17.81;90.16
59686;BME280;45554;51.096;16.976;2022-09-09T07:15:02;99930.45;;;17.80;91.18
59686;BME280;45554;51.096;16.976;2022-09-09T07:17:46;99945.75;;;18.00;90.60
59686;BME280;45554;51.096;16.976;2022-09-09T07:21:12;99948.75;;;18.10;90.26
59686;BME280;45554;51.096;16.976;2022-09-09T07:24:05;99946.27;;;18.19;90.20
59686;BME280;45554;51.096;16.976;2022-09-09T07:26:52;99945.10;;;18.28;87.64
59686;BME280;45554;51.096;16.976;2022-09-09T07:29:57;99940.39;;;18.39;87.17
59686;BME280;45554;51.096;16.976;2022-09-09T07:32:57;99938.04;;;18.49;85.65
59686;BME280;45554;51.096;16.976;2022-09-09T07:35:30;99938.23;;;18.58;86.16
59686;BME280;45554;51.096;16.976;2022-09-09T07:38:19;99939.14;;;18.69;85.03
59686;BME280;45554;51.096;16.976;2022-09-09T07:41:04;99940.90;;;18.79;84.56
59686;BME280;45554;51.096;16.976;2022-09-09T07:44:22;99947.07;;;18.89;83.12
59686;BME280;45554;51.096;16.976;2022-09-09T07:47:41;99951.75;;;18.98;83.20
59686;BME280;45554;51.096;16.976;2022-09-09T07:50:42;99958.40;;;19.06;83.30
59686;BME280;45554;51.096;16.976;2022-09-09T07:53:33;99960.80;;;19.20;83.27
59686;BME280;45554;51.096;16.976;2022-09-09T07:56:16;99958.73;;;19.34;82.41
59686;BME280;45554;51.096;16.976;2022-09-09T07:58:47;99954.54;;;19.48;82.24
59686;BME280;45554;51.096;16.976;2022-09-09T08:01:28;99958.48;;;19.61;82.26
59686;BME280;45554;51.096;16.976;2022-09-09T08:04:00;99948.52;;;19.72;81.46
59686;BME280;45554;51.096;16.976;2022-09-09T08:06:32;99954.55;;;19.83;80.80
59686;BME280;45554;51.096;16.976;2022-09-09T08:09:07;99958.23;;;19.94;80.49
59686;BME280;45554;51.096;16.976;2022-09-09T08:11:40;99959.41;;;20.06;80.60
59686;BME280;45554;51.096;16.976;2022-09-09T08:14:13;99956.50;;;20.19;79.08
59686;BME280;45554;51.096;16.976;2022-09-09T08:16:58;99955.89;;;20.31;78.94
59686;BME280;45554;51.096;16.976;2022-09-09T08:19:55;99955.91;;;20.43;78.76
59686;BME280;45554;51.096;16.976;2022-09-09T08:22:58;99952.93;;;20.61;77.47
59686;BME280;45554;51.096;16.976;2022-09-09T08:26:49;99952.17;;;20.78;77.15
59686;BME280;45554;51.096;16.976;2022-09-09T08:29:31;99947.89;;;20.92;76.20
59686;BME280;45554;51.096;16.976;2022-09-09T08:32:40;99944.62;;;20.99;76.30
59686;BME280;45554;51.096;16.976;2022-09-09T08:35:30;99939.39;;;21.15;75.99
59686;BME280;45554;51.096;16.976;2022-09-09T08:38:34;99937.11;;;21.34;74.79
59686;BME280;45554;51.096;16.976;2022-09-09T08:50:44;99949.54;;;21.85;70.18
59686;BME280;45554;51.096;16.976;2022-09-09T08:53:29;99951.02;;;21.89;70.08
59686;BME280;45554;51.096;16.976;2022-09-09T08:56:38;99956.30;;;21.89;65.94
59686;BME280;45554;51.096;16.976;2022-09-09T08:59:17;99957.42;;;21.83;66.70
59686;BME280;45554;51.096;16.976;2022-09-09T09:05:00;99956.48;;;21.76;66.44
59686;BME280;45554;51.096;16.976;2022-09-09T09:07:53;99961.08;;;21.74;66.97
59686;BME280;45554;51.096;16.976;2022-09-09T09:13:22;99963.31;;;21.68;64.51
59686;BME280;45554;51.096;16.976;2022-09-09T09:16:38;99960.35;;;21.57;63.53
59686;BME280;45554;51.096;16.976;2022-09-09T09:19:15;99960.06;;;21.49;64.39
59686;BME280;45554;51.096;16.976;2022-09-09T09:24:49;99962.14;;;21.35;63.19
59686;BME280;45554;51.096;16.976;2022-09-09T09:27:32;99961.36;;;21.30;63.65
59686;BME280;45554;51.096;16.976;2022-09-09T09:30:21;99962.30;;;21.30;63.54
59686;BME280;45554;51.096;16.976;2022-09-09T09:33:23;99959.51;;;21.29;63.93
59686;BME280;45554;51.096;16.976;2022-09-09T09:36:10;99958.79;;;21.29;63.54
59686;BME280;45554;51.096;16.976;2022-09-09T09:38:55;99958.77;;;21.33;62.12
59686;BME280;45554;51.096;16.976;2022-09-09T09:41:45;99958.66;;;21.32;61.71
59686;BME280;45554;51.096;16.976;2022-09-09T09:44:44;99966.79;;;21.35;60.66
59686;BME280;45554;51.096;16.976;2022-09-09T09:47:25;99958.23;;;21.34;60.83
59686;BME280;45554;51.096;16.976;2022-09-09T09:50:20;99956.54;;;21.42;60.24
59686;BME280;45554;51.096;16.976;2022-09-09T09:53:47;99959.31;;;21.45;58.25
59686;BME280;45554;51.096;16.976;2022-09-09T09:56:55;99964.55;;;21.48;58.96
59686;BME280;45554;51.096;16.976;2022-09-09T10:03:28;99958.73;;;21.69;59.89
59686;BME280;45554;51.096;16.976;2022-09-09T10:06:36;99962.17;;;21.82;59.90
59686;BME280;45554;51.096;16.976;2022-09-09T10:13:23;99964.17;;;22.00;55.72
59686;BME280;45554;51.096;16.976;2022-09-09T10:35:52;99948.86;;;22.01;56.04
59686;BME280;45554;51.096;16.976;2022-09-09T10:39:35;99949.48;;;22.13;56.37
59686;BME280;45554;51.096;16.976;2022-09-09T10:42:39;99949.25;;;22.19;55.02
59686;BME280;45554;51.096;16.976;2022-09-09T11:00:42;99941.83;;;22.72;54.38
59686;BME280;45554;51.096;16.976;2022-09-09T11:03:59;99939.56;;;22.76;53.39
59686;BME280;45554;51.096;16.976;2022-09-09T11:07:54;99938.02;;;22.87;52.89
59686;BME280;45554;51.096;16.976;2022-09-09T11:11:03;99938.33;;;23.00;52.60
59686;BME280;45554;51.096;16.976;2022-09-09T11:13:56;99941.50;;;23.09;50.93
59686;BME280;45554;51.096;16.976;2022-09-09T11:18:03;99945.98;;;23.20;49.99
59686;BME280;45554;51.096;16.976;2022-09-09T11:21:16;99943.80;;;23.23;50.46
59686;BME280;45554;51.096;16.976;2022-09-09T11:24:51;99941.39;;;23.34;51.58
59686;BME280;45554;51.096;16.976;2022-09-09T11:41:02;99939.34;;;24.23;47.20
59686;BME280;45554;51.096;16.976;2022-09-09T11:44:18;99938.24;;;24.35;48.11
59686;BME280;45554;51.096;16.976;2022-09-09T11:47:28;99936.05;;;24.49;48.22
59686;BME280;45554;51.096;16.976;2022-09-09T11:50:43;99935.73;;;24.68;48.06
59686;BME280;45554;51.096;16.976;2022-09-09T11:53:54;99934.70;;;24.92;47.75
59686;BME280;45554;51.096;16.976;2022-09-09T11:56:44;99936.96;;;25.04;47.24
59686;BME280;45554;51.096;16.976;2022-09-09T11:59:21;99937.88;;;25.24;47.32
59686;BME280;45554;51.096;16.976;2022-09-09T12:02:09;99934.39;;;25.43;46.48
59686;BME280;45554;51.096;16.976;2022-09-09T12:04:57;99934.04;;;25.51;45.87
59686;BME280;45554;51.096;16.976;2022-09-09T12:10:26;99936.67;;;25.19;42.60
59686;BME280;45554;51.096;16.976;2022-09-09T12:13:21;99934.50;;;25.00;43.89
59686;BME280;45554;51.096;16.976;2022-09-09T12:16:00;99934.35;;;24.90;44.23
59686;BME280;45554;51.096;16.976;2022-09-09T12:18:38;99935.11;;;24.87;44.10
59686;BME280;45554;51.096;16.976;2022-09-09T12:24:10;99926.71;;;25.21;44.82
59686;BME280;45554;51.096;16.976;2022-09-09T12:27:03;99922.13;;;25.44;45.07
59686;BME280;45554;51.096;16.976;2022-09-09T12:32:23;99913.56;;;26.07;44.96
59686;BME280;45554;51.096;16.976;2022-09-09T12:35:19;99917.19;;;26.51;45.82
59686;BME280;45554;51.096;16.976;2022-09-09T12:38:00;99920.81;;;26.98;45.38
59686;BME280;45554;51.096;16.976;2022-09-09T12:40:33;99918.55;;;27.31;45.09
59686;BME280;45554;51.096;16.976;2022-09-09T12:43:21;99918.33;;;27.59;44.64
59686;BME280;45554;51.096;16.976;2022-09-09T12:46:02;99915.45;;;27.77;44.35
59686;BME280;45554;51.096;16.976;2022-09-09T12:48:40;99922.37;;;28.07;44.23
59686;BME280;45554;51.096;16.976;2022-09-09T12:51:30;99928.14;;;28.34;43.97
59686;BME280;45554;51.096;16.976;2022-09-09T12:54:37;99926.57;;;28.45;43.07
59686;BME280;45554;51.096;16.976;2022-09-09T12:57:11;99923.83;;;28.60;42.81
59686;BME280;45554;51.096;16.976;2022-09-09T12:59:44;99918.95;;;28.60;42.15
59686;BME280;45554;51.096;16.976;2022-09-09T13:02:29;99915.42;;;28.49;42.21
59686;BME280;45554;51.096;16.976;2022-09-09T13:05:17;99915.48;;;28.36;41.97
59686;BME280;45554;51.096;16.976;2022-09-09T13:08:00;99919.09;;;28.26;42.35
59686;BME280;45554;51.096;16.976;2022-09-09T13:10:34;99921.41;;;28.42;42.62
59686;BME280;45554;51.096;16.976;2022-09-09T13:13:35;99913.19;;;28.67;41.76
59686;BME280;45554;51.096;16.976;2022-09-09T13:16:07;99909.37;;;28.75;40.82
59686;BME280;45554;51.096;16.976;2022-09-09T13:18:56;99902.55;;;28.89;40.81
59686;BME280;45554;51.096;16.976;2022-09-09T13:21:40;99899.45;;;29.11;40.37
59686;BME280;45554;51.096;16.976;2022-09-09T13:24:29;99896.59;;;29.42;40.33
59686;BME280;45554;51.096;16.976;2022-09-09T13:27:50;99888.45;;;29.88;39.65
59686;BME280;45554;51.096;16.976;2022-09-09T13:30:38;99892.98;;;30.15;39.25
59686;BME280;45554;51.096;16.976;2022-09-09T13:36:03;99892.00;;;30.58;37.60
59686;BME280;45554;51.096;16.976;2022-09-09T13:41:51;99884.23;;;30.45;36.64
59686;BME280;45554;51.096;16.976;2022-09-09T13:44:30;99877.67;;;30.74;37.26
59686;BME280;45554;51.096;16.976;2022-09-09T13:47:18;99873.41;;;31.11;36.84
59686;BME280;45554;51.096;16.976;2022-09-09T13:49:55;99870.02;;;31.50;36.33
59686;BME280;45554;51.096;16.976;2022-09-09T13:53:03;99860.49;;;31.93;35.90
59686;BME280;45554;51.096;16.976;2022-09-09T13:55:31;99864.81;;;32.25;35.26
59686;BME280;45554;51.096;16.976;2022-09-09T13:59:19;99860.98;;;32.41;34.16
59686;BME280;45554;51.096;16.976;2022-09-09T14:02:21;99862.69;;;32.41;33.29
59686;BME280;45554;51.096;16.976;2022-09-09T14:04:54;99855.20;;;32.23;32.88
59686;BME280;45554;51.096;16.976;2022-09-09T14:07:25;99857.18;;;32.05;32.91
59686;BME280;45554;51.096;16.976;2022-09-09T14:09:54;99863.52;;;32.03;33.11
59686;BME280;45554;51.096;16.976;2022-09-09T14:12:27;99860.36;;;32.05;32.96
59686;BME280;45554;51.096;16.976;2022-09-09T14:14:58;99863.45;;;32.09;32.80
59686;BME280;45554;51.096;16.976;2022-09-09T14:17:36;99861.02;;;32.05;32.91
59686;BME280;45554;51.096;16.976;2022-09-09T14:20:06;99861.11;;;32.25;32.88
59686;BME280;45554;51.096;16.976;2022-09-09T14:22:36;99863.70;;;32.38;32.54
59686;BME280;45554;51.096;16.976;2022-09-09T14:25:05;99864.77;;;32.36;32.12
59686;BME280;45554;51.096;16.976;2022-09-09T14:27:38;99864.13;;;32.34;32.10
59686;BME280;45554;51.096;16.976;2022-09-09T14:30:20;99868.91;;;32.45;32.04
59686;BME280;45554;51.096;16.976;2022-09-09T14:32:54;99870.38;;;32.48;31.98
59686;BME280;45554;51.096;16.976;2022-09-09T14:35:31;99864.36;;;32.66;31.77
59686;BME280;45554;51.096;16.976;2022-09-09T14:38:04;99865.30;;;32.93;31.82
59686;BME280;45554;51.096;16.976;2022-09-09T14:40:46;99860.70;;;33.14;31.58
59686;BME280;45554;51.096;16.976;2022-09-09T14:43:40;99860.05;;;33.25;31.46
59686;BME280;45554;51.096;16.976;2022-09-09T14:46:15;99853.83;;;33.36;31.27
59686;BME280;45554;51.096;16.976;2022-09-09T14:48:50;99851.71;;;33.37;30.63
59686;BME280;45554;51.096;16.976;2022-09-09T14:51:24;99854.80;;;33.34;30.59
59686;BME280;45554;51.096;16.976;2022-09-09T14:53:57;99848.69;;;33.36;30.82
59686;BME280;45554;51.096;16.976;2022-09-09T14:56:32;99846.12;;;33.38;30.70
59686;BME280;45554;51.096;16.976;2022-09-09T14:59:23;99841.64;;;33.31;30.55
59686;BME280;45554;51.096;16.976;2022-09-09T15:01:54;99840.10;;;33.23;30.59
59686;BME280;45554;51.096;16.976;2022-09-09T15:04:25;99843.55;;;33.11;30.52
59686;BME280;45554;51.096;16.976;2022-09-09T15:06:56;99840.59;;;32.97;30.64
59686;BME280;45554;51.096;16.976;2022-09-09T15:09:29;99838.19;;;32.84;30.71
59686;BME280;45554;51.096;16.976;2022-09-09T15:12:01;99836.94;;;32.57;30.60
59686;BME280;45554;51.096;16.976;2022-09-09T15:14:31;99835.20;;;32.21;31.13
59686;BME280;45554;51.096;16.976;2022-09-09T15:16:58;99829.32;;;31.85;31.55
59686;BME280;45554;51.096;16.976;2022-09-09T15:19:29;99826.58;;;31.51;31.86
59686;BME280;45554;51.096;16.976;2022-09-09T15:22:00;99832.45;;;31.21;32.32
59686;BME280;45554;51.096;16.976;2022-09-09T15:24:29;99831.01;;;30.96;32.68
59686;BME280;45554;51.096;16.976;2022-09-09T15:26:59;99830.56;;;30.71;32.81
59686;BME280;45554;51.096;16.976;2022-09-09T15:29:31;99830.00;;;30.41;33.04
59686;BME280;45554;51.096;16.976;2022-09-09T15:32:08;99829.83;;;30.18;33.47
59686;BME280;45554;51.096;16.976;2022-09-09T15:34:38;99830.55;;;30.03;33.98
59686;BME280;45554;51.096;16.976;2022-09-09T15:37:10;99833.36;;;29.88;33.99
59686;BME280;45554;51.096;16.976;2022-09-09T15:39:41;99839.89;;;29.72;34.07
59686;BME280;45554;51.096;16.976;2022-09-09T15:42:09;99843.59;;;29.52;34.21
59686;BME280;45554;51.096;16.976;2022-09-09T15:44:41;99852.81;;;29.25;34.54
59686;BME280;45554;51.096;16.976;2022-09-09T15:47:12;99855.64;;;29.01;34.77
59686;BME280;45554;51.096;16.976;2022-09-09T15:49:42;99849.19;;;28.82;35.20
59686;BME280;45554;51.096;16.976;2022-09-09T15:52:16;99850.89;;;28.59;35.53
59686;BME280;45554;51.096;16.976;2022-09-09T15:54:45;99851.21;;;28.34;35.94
59686;BME280;45554;51.096;16.976;2022-09-09T15:57:19;99850.58;;;28.10;36.56
59686;BME280;45554;51.096;16.976;2022-09-09T15:59:47;99853.16;;;27.91;36.83
59686;BME280;45554;51.096;16.976;2022-09-09T16:02:16;99851.63;;;27.73;37.33
59686;BME280;45554;51.096;16.976;2022-09-09T16:04:48;99851.75;;;27.56;37.37
59686;BME280;45554;51.096;16.976;2022-09-09T16:07:18;99856.52;;;27.39;37.63
59686;BME280;45554;51.096;16.976;2022-09-09T16:09:47;99856.73;;;27.22;38.07
59686;BME280;45554;51.096;16.976;2022-09-09T16:12:17;99855.54;;;27.04;38.54
59686;BME280;45554;51.096;16.976;2022-09-09T16:14:48;99856.52;;;26.91;38.74
59686;BME280;45554;51.096;16.976;2022-09-09T16:17:16;99854.13;;;26.73;39.29
59686;BME280;45554;51.096;16.976;2022-09-09T16:19:51;99859.19;;;26.60;39.55
59686;BME280;45554;51.096;16.976;2022-09-09T16:22:29;99862.41;;;26.41;39.63
59686;BME280;45554;51.096;16.976;2022-09-09T16:24:59;99865.77;;;26.21;39.93
59686;BME280;45554;51.096;16.976;2022-09-09T16:27:27;99870.13;;;26.03;40.12
59686;BME280;45554;51.096;16.976;2022-09-09T16:29:57;99866.83;;;25.86;40.58
59686;BME280;45554;51.096;16.976;2022-09-09T16:32:24;99862.77;;;25.71;40.96
59686;BME280;45554;51.096;16.976;2022-09-09T16:34:53;99856.09;;;25.59;41.20
59686;BME280;45554;51.096;16.976;2022-09-09T16:37:24;99856.64;;;25.45;41.47
59686;BME280;45554;51.096;16.976;2022-09-09T16:39:52;99856.94;;;25.27;41.87
59686;BME280;45554;51.096;16.976;2022-09-09T16:42:23;99867.45;;;25.07;41.97
59686;BME280;45554;51.096;16.976;2022-09-09T16:44:50;99869.51;;;24.91;42.27
59686;BME280;45554;51.096;16.976;2022-09-09T16:47:19;99865.30;;;24.73;42.87
59686;BME280;45554;51.096;16.976;2022-09-09T16:49:46;99862.52;;;24.59;43.07
59686;BME280;45554;51.096;16.976;2022-09-09T16:52:16;99868.32;;;24.43;43.70
59686;BME280;45554;51.096;16.976;2022-09-09T16:54:50;99871.98;;;24.28;44.21
59686;BME280;45554;51.096;16.976;2022-09-09T16:57:18;99873.48;;;24.11;44.43
59686;BME280;45554;51.096;16.976;2022-09-09T16:59:47;99873.10;;;23.95;44.76